Lake Lure, North Carolina
Current Conditions -  °F | °C
As of 6:15 PM on Monday 22 Dec 2014 (Local Time) from KFQD Reporting Station
Overcast Overcast  
Wind Chill: 41°   Ceiling: 900
Heat Index: 41°   Visibility: 10mi
Dew Point: 39°   Wind: 0mph
Humidity: 95%   Direction: NA
Pressure: 30.02"   Gusts: NA
Location:  35.43°N, 82.2°W
Report Text: KFQD 222315Z AUTO 00000KT 10SM BKN009 OVC014 05/04 A3002 RMK AO2 T00480040
Loading
Personal Weather Stations






























Interactive Weather Map New forecast layout! Learn more

10-Day Weather Forecast

Advertisements
Track Severe Weather on mobile